sensor_id;sensor_type;location;lat;lon;timestamp;P1;durP1;ratioP1;P2;durP2;ratioP2
25069;SDS011;13064;48.162;11.536;2022-11-20T00:00:25;5.60;;;2.28;;
25069;SDS011;13064;48.162;11.536;2022-11-20T00:02:53;3.78;;;2.50;;
25069;SDS011;13064;48.162;11.536;2022-11-20T00:05:20;3.63;;;2.30;;
25069;SDS011;13064;48.162;11.536;2022-11-20T00:07:48;3.80;;;2.00;;
25069;SDS011;13064;48.162;11.536;2022-11-20T00:10:15;2.90;;;2.22;;
25069;SDS011;13064;48.162;11.536;2022-11-20T00:12:43;3.63;;;2.05;;
25069;SDS011;13064;48.162;11.536;2022-11-20T00:15:11;4.85;;;2.20;;
25069;SDS011;13064;48.162;11.536;2022-11-20T00:17:38;2.50;;;2.10;;
25069;SDS011;13064;48.162;11.536;2022-11-20T00:20:06;3.72;;;2.25;;
25069;SDS011;13064;48.162;11.536;2022-11-20T00:22:33;2.30;;;2.03;;
25069;SDS011;13064;48.162;11.536;2022-11-20T00:25:01;2.83;;;2.30;;
25069;SDS011;13064;48.162;11.536;2022-11-20T00:27:29;3.63;;;2.05;;
25069;SDS011;13064;48.162;11.536;2022-11-20T00:29:56;2.83;;;2.25;;
25069;SDS011;13064;48.162;11.536;2022-11-20T00:32:24;3.28;;;2.35;;
25069;SDS011;13064;48.162;11.536;2022-11-20T00:34:51;3.55;;;2.22;;
25069;SDS011;13064;48.162;11.536;2022-11-20T00:37:19;4.05;;;2.40;;
25069;SDS011;13064;48.162;11.536;2022-11-20T00:39:46;2.60;;;2.40;;
25069;SDS011;13064;48.162;11.536;2022-11-20T00:42:14;4.18;;;2.88;;
25069;SDS011;13064;48.162;11.536;2022-11-20T00:44:42;4.60;;;2.55;;
25069;SDS011;13064;48.162;11.536;2022-11-20T00:47:09;3.75;;;2.72;;
25069;SDS011;13064;48.162;11.536;2022-11-20T00:49:37;3.28;;;2.20;;
25069;SDS011;13064;48.162;11.536;2022-11-20T00:52:04;4.82;;;2.60;;
25069;SDS011;13064;48.162;11.536;2022-11-20T00:54:32;4.05;;;2.80;;
25069;SDS011;13064;48.162;11.536;2022-11-20T00:56:59;5.57;;;3.05;;
25069;SDS011;13064;48.162;11.536;2022-11-20T00:59:27;4.38;;;2.80;;
25069;SDS011;13064;48.162;11.536;2022-11-20T01:01:55;2.88;;;2.58;;
25069;SDS011;13064;48.162;11.536;2022-11-20T01:04:22;3.50;;;2.60;;
25069;SDS011;13064;48.162;11.536;2022-11-20T01:06:50;3.70;;;2.60;;
25069;SDS011;13064;48.162;11.536;2022-11-20T01:09:17;3.92;;;2.42;;
25069;SDS011;13064;48.162;11.536;2022-11-20T01:11:46;4.60;;;2.70;;
25069;SDS011;13064;48.162;11.536;2022-11-20T01:14:14;3.95;;;2.50;;
25069;SDS011;13064;48.162;11.536;2022-11-20T01:16:46;3.22;;;2.47;;
25069;SDS011;13064;48.162;11.536;2022-11-20T01:19:16;3.58;;;2.70;;
25069;SDS011;13064;48.162;11.536;2022-11-20T01:21:44;3.13;;;2.22;;
25069;SDS011;13064;48.162;11.536;2022-11-20T01:24:13;4.05;;;2.63;;
25069;SDS011;13064;48.162;11.536;2022-11-20T01:26:42;4.38;;;2.40;;
25069;SDS011;13064;48.162;11.536;2022-11-20T01:29:12;2.92;;;2.22;;
25069;SDS011;13064;48.162;11.536;2022-11-20T01:31:40;3.97;;;2.60;;
25069;SDS011;13064;48.162;11.536;2022-11-20T01:34:12;3.83;;;2.70;;
25069;SDS011;13064;48.162;11.536;2022-11-20T01:36:41;3.03;;;2.70;;
25069;SDS011;13064;48.162;11.536;2022-11-20T01:39:13;4.22;;;2.38;;
25069;SDS011;13064;48.162;11.536;2022-11-20T01:41:41;3.58;;;2.80;;
25069;SDS011;13064;48.162;11.536;2022-11-20T01:44:53;3.80;;;2.42;;
25069;SDS011;13064;48.162;11.536;2022-11-20T01:47:29;4.00;;;2.40;;
25069;SDS011;13064;48.162;11.536;2022-11-20T01:50:00;3.00;;;2.30;;
25069;SDS011;13064;48.162;11.536;2022-11-20T01:52:50;2.58;;;2.20;;
25069;SDS011;13064;48.162;11.536;2022-11-20T01:55:20;2.88;;;2.33;;
25069;SDS011;13064;48.162;11.536;2022-11-20T01:57:49;3.47;;;2.30;;
25069;SDS011;13064;48.162;11.536;2022-11-20T02:00:18;3.75;;;2.30;;
25069;SDS011;13064;48.162;11.536;2022-11-20T02:02:50;3.42;;;2.22;;
25069;SDS011;13064;48.162;11.536;2022-11-20T02:05:22;2.92;;;2.25;;
25069;SDS011;13064;48.162;11.536;2022-11-20T02:07:51;2.53;;;2.03;;
25069;SDS011;13064;48.162;11.536;2022-11-20T02:10:19;2.83;;;2.10;;
25069;SDS011;13064;48.162;11.536;2022-11-20T02:12:47;2.80;;;2.40;;
25069;SDS011;13064;48.162;11.536;2022-11-20T02:15:34;4.03;;;2.22;;
25069;SDS011;13064;48.162;11.536;2022-11-20T02:18:01;3.80;;;2.30;;
25069;SDS011;13064;48.162;11.536;2022-11-20T02:20:29;2.80;;;2.20;;
25069;SDS011;13064;48.162;11.536;2022-11-20T02:23:04;4.20;;;2.25;;
25069;SDS011;13064;48.162;11.536;2022-11-20T02:25:32;3.53;;;2.10;;
25069;SDS011;13064;48.162;11.536;2022-11-20T02:28:01;4.40;;;2.35;;
25069;SDS011;13064;48.162;11.536;2022-11-20T02:30:29;4.07;;;2.30;;
25069;SDS011;13064;48.162;11.536;2022-11-20T02:32:57;2.65;;;2.03;;
25069;SDS011;13064;48.162;11.536;2022-11-20T02:37:53;2.92;;;2.42;;
25069;SDS011;13064;48.162;11.536;2022-11-20T02:40:21;4.30;;;2.53;;
25069;SDS011;13064;48.162;11.536;2022-11-20T02:42:52;3.50;;;2.53;;
25069;SDS011;13064;48.162;11.536;2022-11-20T02:45:20;3.70;;;2.93;;
25069;SDS011;13064;48.162;11.536;2022-11-20T02:47:47;3.83;;;2.60;;
25069;SDS011;13064;48.162;11.536;2022-11-20T02:50:15;5.00;;;2.70;;
25069;SDS011;13064;48.162;11.536;2022-11-20T02:52:43;4.00;;;2.70;;
25069;SDS011;13064;48.162;11.536;2022-11-20T02:55:10;4.28;;;2.80;;
25069;SDS011;13064;48.162;11.536;2022-11-20T02:57:38;2.75;;;2.45;;
25069;SDS011;13064;48.162;11.536;2022-11-20T03:00:05;4.65;;;3.13;;
25069;SDS011;13064;48.162;11.536;2022-11-20T03:02:33;4.43;;;2.63;;
25069;SDS011;13064;48.162;11.536;2022-11-20T03:05:01;4.22;;;2.97;;
25069;SDS011;13064;48.162;11.536;2022-11-20T03:07:29;3.20;;;2.67;;
25069;SDS011;13064;48.162;11.536;2022-11-20T03:09:57;3.92;;;2.72;;
25069;SDS011;13064;48.162;11.536;2022-11-20T03:12:24;2.53;;;2.25;;
25069;SDS011;13064;48.162;11.536;2022-11-20T03:14:52;4.00;;;2.70;;
25069;SDS011;13064;48.162;11.536;2022-11-20T03:17:19;3.22;;;2.63;;
25069;SDS011;13064;48.162;11.536;2022-11-20T03:19:47;2.50;;;1.98;;
25069;SDS011;13064;48.162;11.536;2022-11-20T03:22:14;4.35;;;2.53;;
25069;SDS011;13064;48.162;11.536;2022-11-20T03:24:42;5.60;;;2.50;;
25069;SDS011;13064;48.162;11.536;2022-11-20T03:27:09;3.03;;;2.53;;
25069;SDS011;13064;48.162;11.536;2022-11-20T03:29:37;4.63;;;2.53;;
25069;SDS011;13064;48.162;11.536;2022-11-20T03:32:05;3.28;;;2.30;;
25069;SDS011;13064;48.162;11.536;2022-11-20T03:34:32;2.40;;;2.20;;
25069;SDS011;13064;48.162;11.536;2022-11-20T03:37:00;2.40;;;2.20;;
25069;SDS011;13064;48.162;11.536;2022-11-20T03:39:28;2.28;;;2.08;;
25069;SDS011;13064;48.162;11.536;2022-11-20T03:41:55;3.22;;;2.30;;
25069;SDS011;13064;48.162;11.536;2022-11-20T03:44:23;4.55;;;2.38;;
25069;SDS011;13064;48.162;11.536;2022-11-20T03:46:51;3.80;;;2.60;;
25069;SDS011;13064;48.162;11.536;2022-11-20T03:49:18;3.45;;;2.53;;
25069;SDS011;13064;48.162;11.536;2022-11-20T03:51:46;2.50;;;2.03;;
25069;SDS011;13064;48.162;11.536;2022-11-20T03:54:14;2.90;;;2.30;;
25069;SDS011;13064;48.162;11.536;2022-11-20T03:56:41;3.80;;;2.45;;
25069;SDS011;13064;48.162;11.536;2022-11-20T03:59:09;2.58;;;2.13;;
25069;SDS011;13064;48.162;11.536;2022-11-20T04:01:37;3.13;;;2.20;;
25069;SDS011;13064;48.162;11.536;2022-11-20T04:04:05;3.40;;;2.22;;
25069;SDS011;13064;48.162;11.536;2022-11-20T04:06:34;5.97;;;2.38;;
25069;SDS011;13064;48.162;11.536;2022-11-20T04:09:02;4.50;;;2.58;;
25069;SDS011;13064;48.162;11.536;2022-11-20T04:11:30;2.75;;;2.22;;
25069;SDS011;13064;48.162;11.536;2022-11-20T04:14:02;2.40;;;2.05;;
25069;SDS011;13064;48.162;11.536;2022-11-20T04:16:31;4.88;;;2.40;;
25069;SDS011;13064;48.162;11.536;2022-11-20T04:18:59;5.50;;;2.83;;
25069;SDS011;13064;48.162;11.536;2022-11-20T04:21:27;3.20;;;2.20;;
25069;SDS011;13064;48.162;11.536;2022-11-20T04:23:55;3.13;;;2.28;;
25069;SDS011;13064;48.162;11.536;2022-11-20T04:26:24;2.58;;;2.13;;
25069;SDS011;13064;48.162;11.536;2022-11-20T04:28:52;3.63;;;2.20;;
25069;SDS011;13064;48.162;11.536;2022-11-20T04:31:21;3.83;;;2.55;;
25069;SDS011;13064;48.162;11.536;2022-11-20T04:33:49;3.28;;;2.38;;
25069;SDS011;13064;48.162;11.536;2022-11-20T04:36:18;3.67;;;2.45;;
25069;SDS011;13064;48.162;11.536;2022-11-20T04:38:46;3.67;;;2.42;;
25069;SDS011;13064;48.162;11.536;2022-11-20T04:41:22;4.07;;;2.17;;
25069;SDS011;13064;48.162;11.536;2022-11-20T04:43:51;3.05;;;2.38;;
25069;SDS011;13064;48.162;11.536;2022-11-20T04:46:19;3.40;;;2.30;;
25069;SDS011;13064;48.162;11.536;2022-11-20T04:48:47;4.90;;;2.60;;
25069;SDS011;13064;48.162;11.536;2022-11-20T04:51:14;2.90;;;2.03;;
25069;SDS011;13064;48.162;11.536;2022-11-20T04:53:42;2.85;;;2.30;;
25069;SDS011;13064;48.162;11.536;2022-11-20T04:56:10;3.58;;;2.63;;
25069;SDS011;13064;48.162;11.536;2022-11-20T04:58:39;2.30;;;1.90;;
25069;SDS011;13064;48.162;11.536;2022-11-20T05:01:14;4.32;;;2.33;;
25069;SDS011;13064;48.162;11.536;2022-11-20T05:03:42;2.60;;;1.98;;
25069;SDS011;13064;48.162;11.536;2022-11-20T05:06:11;3.70;;;2.45;;
25069;SDS011;13064;48.162;11.536;2022-11-20T05:08:39;4.70;;;2.55;;
25069;SDS011;13064;48.162;11.536;2022-11-20T05:11:08;2.90;;;2.20;;
25069;SDS011;13064;48.162;11.536;2022-11-20T05:13:35;3.90;;;2.58;;
25069;SDS011;13064;48.162;11.536;2022-11-20T05:16:05;3.25;;;2.55;;
25069;SDS011;13064;48.162;11.536;2022-11-20T05:18:33;3.25;;;2.65;;
25069;SDS011;13064;48.162;11.536;2022-11-20T05:21:01;2.90;;;2.55;;
25069;SDS011;13064;48.162;11.536;2022-11-20T05:23:29;2.92;;;2.50;;
25069;SDS011;13064;48.162;11.536;2022-11-20T05:25:57;5.70;;;2.63;;
25069;SDS011;13064;48.162;11.536;2022-11-20T05:28:25;2.88;;;2.42;;
25069;SDS011;13064;48.162;11.536;2022-11-20T05:30:53;3.17;;;2.40;;
25069;SDS011;13064;48.162;11.536;2022-11-20T05:33:21;5.95;;;2.80;;
25069;SDS011;13064;48.162;11.536;2022-11-20T05:35:48;4.82;;;3.10;;
25069;SDS011;13064;48.162;11.536;2022-11-20T05:38:16;6.57;;;4.03;;
25069;SDS011;13064;48.162;11.536;2022-11-20T05:40:43;4.82;;;3.42;;
25069;SDS011;13064;48.162;11.536;2022-11-20T05:43:11;5.47;;;2.67;;
25069;SDS011;13064;48.162;11.536;2022-11-20T05:45:38;3.35;;;2.55;;
25069;SDS011;13064;48.162;11.536;2022-11-20T05:48:06;3.85;;;2.58;;
25069;SDS011;13064;48.162;11.536;2022-11-20T05:50:34;3.63;;;2.60;;
25069;SDS011;13064;48.162;11.536;2022-11-20T05:53:01;4.03;;;2.83;;
25069;SDS011;13064;48.162;11.536;2022-11-20T05:55:29;2.75;;;2.28;;
25069;SDS011;13064;48.162;11.536;2022-11-20T05:57:56;5.28;;;2.72;;
25069;SDS011;13064;48.162;11.536;2022-11-20T06:00:24;3.22;;;2.53;;
25069;SDS011;13064;48.162;11.536;2022-11-20T06:02:51;3.28;;;2.45;;
25069;SDS011;13064;48.162;11.536;2022-11-20T06:05:19;3.17;;;2.47;;
25069;SDS011;13064;48.162;11.536;2022-11-20T06:07:46;3.97;;;2.97;;
25069;SDS011;13064;48.162;11.536;2022-11-20T06:10:14;3.53;;;2.60;;
25069;SDS011;13064;48.162;11.536;2022-11-20T06:12:42;3.22;;;2.35;;
25069;SDS011;13064;48.162;11.536;2022-11-20T06:15:09;3.45;;;2.85;;
25069;SDS011;13064;48.162;11.536;2022-11-20T06:17:37;3.72;;;2.50;;
25069;SDS011;13064;48.162;11.536;2022-11-20T06:20:05;2.60;;;2.13;;
25069;SDS011;13064;48.162;11.536;2022-11-20T06:22:32;2.58;;;2.35;;
25069;SDS011;13064;48.162;11.536;2022-11-20T06:25:00;4.93;;;2.70;;
25069;SDS011;13064;48.162;11.536;2022-11-20T06:27:28;5.50;;;3.08;;
25069;SDS011;13064;48.162;11.536;2022-11-20T06:29:55;3.33;;;2.70;;
25069;SDS011;13064;48.162;11.536;2022-11-20T06:32:23;3.08;;;2.13;;
25069;SDS011;13064;48.162;11.536;2022-11-20T06:34:50;3.25;;;2.95;;
25069;SDS011;13064;48.162;11.536;2022-11-20T06:37:18;3.78;;;2.25;;
25069;SDS011;13064;48.162;11.536;2022-11-20T06:39:46;2.75;;;2.35;;
25069;SDS011;13064;48.162;11.536;2022-11-20T06:42:13;3.15;;;2.22;;
25069;SDS011;13064;48.162;11.536;2022-11-20T06:44:41;3.80;;;2.03;;
25069;SDS011;13064;48.162;11.536;2022-11-20T06:47:08;2.42;;;1.92;;
25069;SDS011;13064;48.162;11.536;2022-11-20T06:49:36;2.47;;;2.00;;
25069;SDS011;13064;48.162;11.536;2022-11-20T06:52:04;2.55;;;1.98;;
25069;SDS011;13064;48.162;11.536;2022-11-20T06:54:32;2.28;;;1.65;;
25069;SDS011;13064;48.162;11.536;2022-11-20T06:57:00;2.05;;;1.60;;
25069;SDS011;13064;48.162;11.536;2022-11-20T06:59:27;4.47;;;2.28;;
25069;SDS011;13064;48.162;11.536;2022-11-20T07:01:55;1.95;;;1.75;;
25069;SDS011;13064;48.162;11.536;2022-11-20T07:04:22;1.95;;;1.60;;
25069;SDS011;13064;48.162;11.536;2022-11-20T07:06:50;1.98;;;1.65;;
25069;SDS011;13064;48.162;11.536;2022-11-20T07:09:17;3.40;;;1.90;;
25069;SDS011;13064;48.162;11.536;2022-11-20T07:11:45;3.95;;;2.05;;
25069;SDS011;13064;48.162;11.536;2022-11-20T07:14:13;2.38;;;2.00;;
25069;SDS011;13064;48.162;11.536;2022-11-20T07:16:40;2.20;;;1.80;;
25069;SDS011;13064;48.162;11.536;2022-11-20T07:19:08;3.15;;;1.70;;
25069;SDS011;13064;48.162;11.536;2022-11-20T07:21:35;2.45;;;1.95;;
25069;SDS011;13064;48.162;11.536;2022-11-20T07:24:03;3.05;;;1.80;;
25069;SDS011;13064;48.162;11.536;2022-11-20T07:26:31;2.55;;;1.80;;
25069;SDS011;13064;48.162;11.536;2022-11-20T07:28:58;4.07;;;2.25;;
25069;SDS011;13064;48.162;11.536;2022-11-20T07:31:26;4.10;;;1.75;;
25069;SDS011;13064;48.162;11.536;2022-11-20T07:33:53;2.30;;;1.60;;
25069;SDS011;13064;48.162;11.536;2022-11-20T07:36:21;2.65;;;1.63;;
25069;SDS011;13064;48.162;11.536;2022-11-20T07:38:48;3.58;;;1.90;;
25069;SDS011;13064;48.162;11.536;2022-11-20T07:41:16;2.30;;;1.63;;
25069;SDS011;13064;48.162;11.536;2022-11-20T07:43:44;3.08;;;1.80;;
25069;SDS011;13064;48.162;11.536;2022-11-20T07:46:11;2.97;;;1.73;;
25069;SDS011;13064;48.162;11.536;2022-11-20T07:48:39;2.08;;;1.83;;
25069;SDS011;13064;48.162;11.536;2022-11-20T07:51:06;3.83;;;1.80;;
25069;SDS011;13064;48.162;11.536;2022-11-20T07:53:34;2.85;;;1.98;;
25069;SDS011;13064;48.162;11.536;2022-11-20T07:56:02;3.08;;;2.10;;
25069;SDS011;13064;48.162;11.536;2022-11-20T07:58:30;3.40;;;1.88;;
25069;SDS011;13064;48.162;11.536;2022-11-20T08:01:08;3.50;;;1.80;;
25069;SDS011;13064;48.162;11.536;2022-11-20T08:03:36;2.05;;;1.60;;
25069;SDS011;13064;48.162;11.536;2022-11-20T08:06:06;3.40;;;2.10;;
25069;SDS011;13064;48.162;11.536;2022-11-20T08:08:34;3.38;;;2.28;;
25069;SDS011;13064;48.162;11.536;2022-11-20T08:11:08;4.45;;;2.20;;
25069;SDS011;13064;48.162;11.536;2022-11-20T08:13:54;3.08;;;1.90;;
25069;SDS011;13064;48.162;11.536;2022-11-20T08:19:09;2.72;;;2.10;;
25069;SDS011;13064;48.162;11.536;2022-11-20T08:21:36;3.63;;;2.20;;
25069;SDS011;13064;48.162;11.536;2022-11-20T08:24:04;2.63;;;1.90;;
25069;SDS011;13064;48.162;11.536;2022-11-20T08:26:32;3.15;;;2.00;;
25069;SDS011;13064;48.162;11.536;2022-11-20T08:29:00;2.40;;;1.90;;
25069;SDS011;13064;48.162;11.536;2022-11-20T08:31:27;2.10;;;1.83;;
25069;SDS011;13064;48.162;11.536;2022-11-20T08:33:55;2.63;;;2.05;;
25069;SDS011;13064;48.162;11.536;2022-11-20T08:36:23;2.58;;;2.00;;
25069;SDS011;13064;48.162;11.536;2022-11-20T08:38:52;2.42;;;2.20;;
25069;SDS011;13064;48.162;11.536;2022-11-20T08:41:20;2.53;;;2.15;;
25069;SDS011;13064;48.162;11.536;2022-11-20T08:46:25;2.22;;;1.75;;
25069;SDS011;13064;48.162;11.536;2022-11-20T08:48:53;3.47;;;1.90;;
25069;SDS011;13064;48.162;11.536;2022-11-20T08:51:21;3.72;;;1.80;;
25069;SDS011;13064;48.162;11.536;2022-11-20T08:53:48;2.20;;;2.00;;
25069;SDS011;13064;48.162;11.536;2022-11-20T08:56:16;2.13;;;1.70;;
25069;SDS011;13064;48.162;11.536;2022-11-20T08:58:44;3.88;;;1.85;;
25069;SDS011;13064;48.162;11.536;2022-11-20T09:01:32;3.75;;;2.10;;
25069;SDS011;13064;48.162;11.536;2022-11-20T09:03:59;2.72;;;1.65;;
25069;SDS011;13064;48.162;11.536;2022-11-20T09:06:27;1.83;;;1.65;;
25069;SDS011;13064;48.162;11.536;2022-11-20T09:08:54;2.20;;;1.60;;
25069;SDS011;13064;48.162;11.536;2022-11-20T09:11:29;2.83;;;1.85;;
25069;SDS011;13064;48.162;11.536;2022-11-20T09:13:56;2.25;;;1.80;;
25069;SDS011;13064;48.162;11.536;2022-11-20T09:16:24;1.70;;;1.50;;
25069;SDS011;13064;48.162;11.536;2022-11-20T09:18:51;2.42;;;1.67;;
25069;SDS011;13064;48.162;11.536;2022-11-20T09:21:39;2.67;;;1.60;;
25069;SDS011;13064;48.162;11.536;2022-11-20T09:24:07;4.75;;;2.33;;
25069;SDS011;13064;48.162;11.536;2022-11-20T09:26:35;2.78;;;1.63;;
25069;SDS011;13064;48.162;11.536;2022-11-20T09:29:03;2.17;;;1.63;;
25069;SDS011;13064;48.162;11.536;2022-11-20T09:31:30;2.72;;;1.80;;
25069;SDS011;13064;48.162;11.536;2022-11-20T09:33:59;2.42;;;1.30;;
25069;SDS011;13064;48.162;11.536;2022-11-20T09:36:26;2.55;;;1.70;;
25069;SDS011;13064;48.162;11.536;2022-11-20T09:38:54;3.05;;;1.40;;
25069;SDS011;13064;48.162;11.536;2022-11-20T09:41:30;2.92;;;1.60;;
25069;SDS011;13064;48.162;11.536;2022-11-20T09:44:14;2.50;;;1.75;;
25069;SDS011;13064;48.162;11.536;2022-11-20T09:46:53;3.30;;;1.50;;
25069;SDS011;13064;48.162;11.536;2022-11-20T09:49:33;2.35;;;1.60;;
25069;SDS011;13064;48.162;11.536;2022-11-20T09:52:12;2.10;;;1.45;;
25069;SDS011;13064;48.162;11.536;2022-11-20T09:54:45;3.30;;;1.67;;
25069;SDS011;13064;48.162;11.536;2022-11-20T09:57:21;2.35;;;1.40;;
25069;SDS011;13064;48.162;11.536;2022-11-20T09:59:50;3.60;;;1.48;;
25069;SDS011;13064;48.162;11.536;2022-11-20T10:04:53;1.67;;;1.33;;
25069;SDS011;13064;48.162;11.536;2022-11-20T10:09:59;3.10;;;1.17;;
25069;SDS011;13064;48.162;11.536;2022-11-20T10:18:02;2.72;;;1.50;;
25069;SDS011;13064;48.162;11.536;2022-11-20T10:20:46;2.08;;;1.58;;
25069;SDS011;13064;48.162;11.536;2022-11-20T10:31:02;2.92;;;1.50;;
25069;SDS011;13064;48.162;11.536;2022-11-20T10:33:33;1.75;;;1.40;;
25069;SDS011;13064;48.162;11.536;2022-11-20T10:36:23;2.13;;;1.50;;
25069;SDS011;13064;48.162;11.536;2022-11-20T10:38:54;2.15;;;1.13;;
25069;SDS011;13064;48.162;11.536;2022-11-20T10:41:26;1.50;;;1.38;;
25069;SDS011;13064;48.162;11.536;2022-11-20T10:44:05;1.40;;;1.30;;
25069;SDS011;13064;48.162;11.536;2022-11-20T10:46:40;2.25;;;1.48;;
25069;SDS011;13064;48.162;11.536;2022-11-20T10:49:16;2.40;;;1.40;;
25069;SDS011;13064;48.162;11.536;2022-11-20T10:52:30;1.70;;;1.30;;
25069;SDS011;13064;48.162;11.536;2022-11-20T10:57:10;1.42;;;1.08;;
25069;SDS011;13064;48.162;11.536;2022-11-20T11:02:15;1.50;;;1.02;;
25069;SDS011;13064;48.162;11.536;2022-11-20T11:04:44;1.23;;;1.10;;
25069;SDS011;13064;48.162;11.536;2022-11-20T11:09:47;1.20;;;1.10;;
25069;SDS011;13064;48.162;11.536;2022-11-20T11:12:15;2.10;;;0.98;;
25069;SDS011;13064;48.162;11.536;2022-11-20T11:14:44;1.52;;;1.00;;
25069;SDS011;13064;48.162;11.536;2022-11-20T11:17:26;1.52;;;1.10;;
25069;SDS011;13064;48.162;11.536;2022-11-20T11:22:21;2.25;;;1.80;;
25069;SDS011;13064;48.162;11.536;2022-11-20T11:24:52;4.22;;;2.05;;
25069;SDS011;13064;48.162;11.536;2022-11-20T11:27:20;1.07;;;1.00;;
25069;SDS011;13064;48.162;11.536;2022-11-20T11:29:47;1.00;;;0.80;;
25069;SDS011;13064;48.162;11.536;2022-11-20T11:32:18;2.25;;;1.40;;
25069;SDS011;13064;48.162;11.536;2022-11-20T11:34:59;2.45;;;1.17;;
25069;SDS011;13064;48.162;11.536;2022-11-20T11:37:28;1.65;;;1.02;;
25069;SDS011;13064;48.162;11.536;2022-11-20T11:40:00;2.90;;;1.15;;
25069;SDS011;13064;48.162;11.536;2022-11-20T11:42:55;1.48;;;1.17;;
25069;SDS011;13064;48.162;11.536;2022-11-20T11:45:24;1.10;;;1.00;;
25069;SDS011;13064;48.162;11.536;2022-11-20T11:47:52;1.05;;;0.80;;
25069;SDS011;13064;48.162;11.536;2022-11-20T11:50:24;1.83;;;1.15;;
25069;SDS011;13064;48.162;11.536;2022-11-20T11:53:03;1.55;;;1.08;;
25069;SDS011;13064;48.162;11.536;2022-11-20T11:55:35;3.30;;;1.40;;
25069;SDS011;13064;48.162;11.536;2022-11-20T11:58:29;1.75;;;1.55;;
25069;SDS011;13064;48.162;11.536;2022-11-20T12:01:08;1.20;;;1.10;;
25069;SDS011;13064;48.162;11.536;2022-11-20T12:03:39;3.97;;;1.50;;
25069;SDS011;13064;48.162;11.536;2022-11-20T12:06:12;2.30;;;1.23;;
25069;SDS011;13064;48.162;11.536;2022-11-20T12:08:54;2.60;;;1.65;;
25069;SDS011;13064;48.162;11.536;2022-11-20T12:14:20;5.28;;;2.97;;
25069;SDS011;13064;48.162;11.536;2022-11-20T12:16:51;3.38;;;1.25;;
25069;SDS011;13064;48.162;11.536;2022-11-20T12:19:19;2.78;;;1.50;;
25069;SDS011;13064;48.162;11.536;2022-11-20T12:29:56;3.85;;;2.03;;
25069;SDS011;13064;48.162;11.536;2022-11-20T12:38:19;1.55;;;1.27;;
25069;SDS011;13064;48.162;11.536;2022-11-20T12:40:57;2.15;;;1.55;;
25069;SDS011;13064;48.162;11.536;2022-11-20T12:43:28;2.55;;;1.90;;
25069;SDS011;13064;48.162;11.536;2022-11-20T12:48:57;2.80;;;1.67;;
25069;SDS011;13064;48.162;11.536;2022-11-20T12:56:50;2.17;;;1.70;;
25069;SDS011;13064;48.162;11.536;2022-11-20T13:07:44;2.65;;;1.30;;
25069;SDS011;13064;48.162;11.536;2022-11-20T13:10:17;2.05;;;1.52;;
25069;SDS011;13064;48.162;11.536;2022-11-20T13:12:49;2.45;;;1.55;;
25069;SDS011;13064;48.162;11.536;2022-11-20T13:18:00;1.40;;;1.30;;
25069;SDS011;13064;48.162;11.536;2022-11-20T13:20:36;9.48;;;6.38;;
25069;SDS011;13064;48.162;11.536;2022-11-20T13:23:03;3.65;;;1.52;;
25069;SDS011;13064;48.162;11.536;2022-11-20T13:25:34;5.78;;;3.47;;
25069;SDS011;13064;48.162;11.536;2022-11-20T13:30:36;2.67;;;1.40;;
25069;SDS011;13064;48.162;11.536;2022-11-20T13:33:06;1.90;;;1.60;;
25069;SDS011;13064;48.162;11.536;2022-11-20T13:35:40;3.58;;;1.98;;
25069;SDS011;13064;48.162;11.536;2022-11-20T13:38:09;2.65;;;1.50;;
25069;SDS011;13064;48.162;11.536;2022-11-20T13:40:38;1.95;;;1.55;;
25069;SDS011;13064;48.162;11.536;2022-11-20T13:43:18;2.45;;;1.30;;
25069;SDS011;13064;48.162;11.536;2022-11-20T13:46:03;3.38;;;1.52;;
25069;SDS011;13064;48.162;11.536;2022-11-20T13:59:49;1.88;;;1.70;;
25069;SDS011;13064;48.162;11.536;2022-11-20T14:02:21;2.10;;;1.70;;
25069;SDS011;13064;48.162;11.536;2022-11-20T14:04:50;2.60;;;1.80;;
25069;SDS011;13064;48.162;11.536;2022-11-20T14:07:18;1.95;;;1.60;;
25069;SDS011;13064;48.162;11.536;2022-11-20T14:09:52;2.42;;;1.77;;
25069;SDS011;13064;48.162;11.536;2022-11-20T14:14:50;2.58;;;2.00;;
25069;SDS011;13064;48.162;11.536;2022-11-20T14:17:20;3.53;;;1.40;;
25069;SDS011;13064;48.162;11.536;2022-11-20T14:19:49;1.90;;;1.30;;
25069;SDS011;13064;48.162;11.536;2022-11-20T14:22:18;2.45;;;1.38;;
25069;SDS011;13064;48.162;11.536;2022-11-20T14:25:00;2.90;;;1.80;;
25069;SDS011;13064;48.162;11.536;2022-11-20T14:29:56;2.65;;;1.80;;
25069;SDS011;13064;48.162;11.536;2022-11-20T14:32:24;3.35;;;1.80;;
25069;SDS011;13064;48.162;11.536;2022-11-20T14:34:54;3.50;;;1.90;;
25069;SDS011;13064;48.162;11.536;2022-11-20T14:37:25;3.08;;;2.03;;
25069;SDS011;13064;48.162;11.536;2022-11-20T14:39:55;1.48;;;1.35;;
25069;SDS011;13064;48.162;11.536;2022-11-20T14:42:26;2.20;;;1.65;;
25069;SDS011;13064;48.162;11.536;2022-11-20T14:44:57;1.90;;;1.33;;
25069;SDS011;13064;48.162;11.536;2022-11-20T14:47:26;1.30;;;1.20;;
25069;SDS011;13064;48.162;11.536;2022-11-20T14:49:54;1.20;;;1.10;;
25069;SDS011;13064;48.162;11.536;2022-11-20T14:52:24;1.45;;;1.13;;
25069;SDS011;13064;48.162;11.536;2022-11-20T14:54:53;3.15;;;1.10;;
25069;SDS011;13064;48.162;11.536;2022-11-20T14:57:23;1.10;;;0.90;;
25069;SDS011;13064;48.162;11.536;2022-11-20T15:00:06;1.08;;;0.90;;
25069;SDS011;13064;48.162;11.536;2022-11-20T15:02:34;0.63;;;0.60;;
25069;SDS011;13064;48.162;11.536;2022-11-20T15:05:06;0.95;;;0.85;;
25069;SDS011;13064;48.162;11.536;2022-11-20T15:07:36;2.45;;;1.00;;
25069;SDS011;13064;48.162;11.536;2022-11-20T15:10:08;1.05;;;0.70;;
25069;SDS011;13064;48.162;11.536;2022-11-20T15:15:21;2.75;;;1.00;;
25069;SDS011;13064;48.162;11.536;2022-11-20T15:17:52;1.63;;;1.10;;
25069;SDS011;13064;48.162;11.536;2022-11-20T15:20:20;1.45;;;1.25;;
25069;SDS011;13064;48.162;11.536;2022-11-20T15:22:50;2.85;;;1.23;;
25069;SDS011;13064;48.162;11.536;2022-11-20T15:25:18;3.40;;;1.30;;
25069;SDS011;13064;48.162;11.536;2022-11-20T15:27:45;1.00;;;0.90;;
25069;SDS011;13064;48.162;11.536;2022-11-20T15:30:16;1.77;;;1.30;;
25069;SDS011;13064;48.162;11.536;2022-11-20T15:32:44;1.42;;;1.27;;
25069;SDS011;13064;48.162;11.536;2022-11-20T15:35:13;2.35;;;1.50;;
25069;SDS011;13064;48.162;11.536;2022-11-20T15:37:41;2.53;;;1.38;;
25069;SDS011;13064;48.162;11.536;2022-11-20T15:40:09;3.47;;;1.55;;
25069;SDS011;13064;48.162;11.536;2022-11-20T15:42:37;2.50;;;1.40;;
25069;SDS011;13064;48.162;11.536;2022-11-20T15:45:04;1.25;;;1.05;;
25069;SDS011;13064;48.162;11.536;2022-11-20T15:47:33;1.67;;;1.50;;
25069;SDS011;13064;48.162;11.536;2022-11-20T15:50:01;1.65;;;1.52;;
25069;SDS011;13064;48.162;11.536;2022-11-20T15:52:29;2.33;;;1.52;;
25069;SDS011;13064;48.162;11.536;2022-11-20T15:55:09;2.55;;;1.60;;
25069;SDS011;13064;48.162;11.536;2022-11-20T15:57:37;3.22;;;1.73;;
25069;SDS011;13064;48.162;11.536;2022-11-20T16:00:04;4.18;;;1.70;;
25069;SDS011;13064;48.162;11.536;2022-11-20T16:02:36;2.88;;;1.55;;
25069;SDS011;13064;48.162;11.536;2022-11-20T16:05:04;1.98;;;1.40;;
25069;SDS011;13064;48.162;11.536;2022-11-20T16:07:37;3.60;;;1.75;;
25069;SDS011;13064;48.162;11.536;2022-11-20T16:10:05;2.38;;;1.70;;
25069;SDS011;13064;48.162;11.536;2022-11-20T16:12:32;2.78;;;1.90;;
25069;SDS011;13064;48.162;11.536;2022-11-20T16:15:19;4.03;;;1.95;;
25069;SDS011;13064;48.162;11.536;2022-11-20T16:18:06;2.97;;;1.90;;
25069;SDS011;13064;48.162;11.536;2022-11-20T16:20:36;4.25;;;2.10;;
25069;SDS011;13064;48.162;11.536;2022-11-20T16:23:03;3.42;;;1.80;;